Time;durP1;ratioP1;P1;durP2;ratioP2;P2;SDS_P1;SDS_P2;PMS_P1;PMS_P2;Temp;Humidity;BMP_temperature;BMP_pressure;BME280_temperature;BME280_humidity;BME280_pressure;Samples;Min_cycle;Max_cycle;Signal;HPM_P1;HPM_P2
2022/09/14 06:58:52;;;;;;;8.35;7.07;;;;;;;;;;5073323;28;20861;-77
2022/09/14 07:01:19;;;;;;;7.85;7.03;;;;;;;;;;5068257;28;20051;-77
2022/09/14 07:03:48;;;;;;;7.80;7.00;;;;;;;;;;5059585;28;20079;-75
2022/09/14 07:06:18;;;;;;;7.25;6.00;;;;;;;;;;5058782;28;20036;-77
2022/09/14 07:08:46;;;;;;;7.88;6.63;;;;;;;;;;5061771;28;20052;-78
2022/09/14 07:11:15;;;;;;;6.38;5.78;;;;;;;;;;5060887;28;20105;-76
2022/09/14 07:13:43;;;;;;;6.47;5.10;;;;;;;;;;5060604;28;20037;-77
2022/09/14 07:16:11;;;;;;;6.05;5.55;;;;;;;;;;5057245;28;20194;-77
2022/09/14 07:18:38;;;;;;;5.35;4.90;;;;;;;;;;5059050;28;20052;-76
2022/09/14 07:21:10;;;;;;;5.78;4.82;;;;;;;;;;5062340;28;20037;-76
2022/09/14 07:23:39;;;;;;;5.32;4.70;;;;;;;;;;5060068;28;20095;-77
2022/09/14 07:26:07;;;;;;;7.88;5.50;;;;;;;;;;5060996;28;20037;-76
2022/09/14 07:28:35;;;;;;;7.03;5.47;;;;;;;;;;5062038;28;20064;-78
2022/09/14 07:31:03;;;;;;;7.05;5.15;;;;;;;;;;5054557;28;20095;-77
2022/09/14 07:33:31;;;;;;;5.78;5.20;;;;;;;;;;5060532;28;20040;-76
2022/09/14 07:36:08;;;;;;;5.15;4.75;;;;;;;;;;5060518;28;20045;-76
2022/09/14 07:38:36;;;;;;;5.30;4.80;;;;;;;;;;5057520;28;20056;-77
2022/09/14 07:41:25;;;;;;;5.60;5.10;;;;;;;;;;5058994;28;20523;-76
2022/09/14 07:43:53;;;;;;;8.15;5.15;;;;;;;;;;5059930;28;20503;-77
2022/09/14 07:46:21;;;;;;;5.53;5.03;;;;;;;;;;5058266;28;20052;-77
2022/09/14 07:48:48;;;;;;;4.97;4.68;;;;;;;;;;5059155;28;20044;-76
2022/09/14 07:51:16;;;;;;;5.65;4.88;;;;;;;;;;5052037;28;20075;-77
2022/09/14 07:53:44;;;;;;;6.90;4.95;;;;;;;;;;5042175;28;20377;-76
2022/09/14 07:56:15;;;;;;;6.07;5.55;;;;;;;;;;5041846;28;20277;-78
2022/09/14 07:58:43;;;;;;;5.22;4.82;;;;;;;;;;5052899;28;20139;-77
2022/09/14 08:01:12;;;;;;;5.55;5.05;;;;;;;;;;5059741;28;20421;-76
2022/09/14 08:03:40;;;;;;;6.28;5.53;;;;;;;;;;5053339;28;20037;-77
2022/09/14 08:06:17;;;;;;;8.50;5.45;;;;;;;;;;5039534;28;20045;-77
2022/09/14 08:08:46;;;;;;;5.70;5.05;;;;;;;;;;5051951;28;20123;-77
2022/09/14 08:11:15;;;;;;;5.40;5.00;;;;;;;;;;5046321;28;20474;-77
2022/09/14 08:13:44;;;;;;;5.72;5.22;;;;;;;;;;5041878;28;20507;-76
2022/09/14 08:16:12;;;;;;;5.47;4.97;;;;;;;;;;5046601;28;20045;-77
2022/09/14 08:18:39;;;;;;;6.18;5.38;;;;;;;;;;5045825;28;20515;-77
2022/09/14 08:21:12;;;;;;;5.70;5.22;;;;;;;;;;5046617;28;20147;-77
2022/09/14 08:23:40;;;;;;;8.32;6.85;;;;;;;;;;5038773;28;20863;-78
2022/09/14 08:26:16;;;;;;;7.00;5.65;;;;;;;;;;5041677;28;20496;-80
2022/09/14 08:28:43;;;;;;;7.18;5.03;;;;;;;;;;5048711;28;20138;-77
2022/09/14 08:31:13;;;;;;;8.55;5.90;;;;;;;;;;5041813;28;20041;-77
2022/09/14 08:33:44;;;;;;;5.18;4.78;;;;;;;;;;5025712;28;20057;-76
2022/09/14 08:36:12;;;;;;;;;;;;;;;;;;5045918;28;20198;-77
2022/09/14 08:38:39;;;;;;;5.38;4.30;;;;;;;;;;5039110;28;19921;-79
2022/09/14 08:41:24;;;;;;;7.82;5.30;;;;;;;;;;5042423;28;20090;-77
2022/09/14 08:43:52;;;;;;;7.05;4.88;;;;;;;;;;5030644;28;20045;-77
2022/09/14 08:46:28;;;;;;;7.15;5.45;;;;;;;;;;5028147;28;20068;-74
2022/09/14 08:48:56;;;;;;;7.35;6.22;;;;;;;;;;5031502;28;20044;-74
2022/09/14 08:51:23;;;;;;;8.70;5.57;;;;;;;;;;5034417;28;20048;-75
2022/09/14 08:53:52;;;;;;;7.00;4.93;;;;;;;;;;5045322;28;20076;-75
2022/09/14 08:56:31;;;;;;;6.07;5.57;;;;;;;;;;5047059;28;20564;-74
2022/09/14 08:59:14;;;;;;;5.43;4.30;;;;;;;;;;5044489;28;20041;-74
2022/09/14 09:01:47;;;;;;;4.72;4.20;;;;;;;;;;5043910;28;20514;-74
2022/09/14 09:04:16;;;;;;;5.05;4.22;;;;;;;;;;5039234;28;20140;-74
2022/09/14 09:06:43;;;;;;;5.40;4.57;;;;;;;;;;5047788;28;20752;-74
2022/09/14 09:09:40;;;;;;;5.70;4.43;;;;;;;;;;5043144;28;20036;-75
2022/09/14 09:12:11;;;;;;;10.45;4.70;;;;;;;;;;5010407;28;20051;-74
2022/09/14 09:14:40;;;;;;;5.10;4.63;;;;;;;;;;5030464;28;20509;-74
2022/09/14 09:17:14;;;;;;;4.93;4.15;;;;;;;;;;5034660;28;20103;-74
2022/09/14 09:19:49;;;;;;;5.00;4.40;;;;;;;;;;5028819;28;20048;-74
2022/09/14 09:22:18;;;;;;;9.65;4.40;;;;;;;;;;5032757;28;20044;-74
2022/09/14 09:24:48;;;;;;;6.90;3.80;;;;;;;;;;5035587;28;20048;-74
2022/09/14 09:27:16;;;;;;;3.45;3.25;;;;;;;;;;5014792;28;20883;-75
2022/09/14 09:29:43;;;;;;;3.50;3.20;;;;;;;;;;5033398;28;20079;-74
2022/09/14 09:32:18;;;;;;;7.07;3.00;;;;;;;;;;5037262;28;20041;-74
2022/09/14 09:35:15;;;;;;;11.85;10.85;;;;;;;;;;5041444;28;20049;-74
2022/09/14 09:37:51;;;;;;;6.18;4.18;;;;;;;;;;5020718;28;20033;-74
2022/09/14 09:40:34;;;;;;;3.50;3.20;;;;;;;;;;5028907;28;20041;-75
2022/09/14 09:43:06;;;;;;;3.78;3.08;;;;;;;;;;5042064;28;20111;-75
2022/09/14 09:45:33;;;;;;;;;;;;;;;;;;5040877;28;20048;-75
2022/09/14 09:48:08;;;;;;;4.95;3.42;;;;;;;;;;5041711;28;19925;-74
2022/09/14 09:50:35;;;;;;;9.40;8.57;;;;;;;;;;5042486;28;20040;-75
2022/09/14 09:53:02;;;;;;;6.25;5.28;;;;;;;;;;5037929;28;20094;-74
2022/09/14 09:55:37;;;;;;;4.57;3.30;;;;;;;;;;5044340;28;20420;-74
2022/09/14 09:58:24;;;;;;;4.00;2.78;;;;;;;;;;5046815;28;20610;-74
2022/09/14 10:00:56;;;;;;;3.05;2.83;;;;;;;;;;5043678;28;20500;-74
2022/09/14 10:03:32;;;;;;;3.55;2.72;;;;;;;;;;5044699;28;20049;-74
2022/09/14 10:06:03;;;;;;;5.05;2.65;;;;;;;;;;5043761;28;20090;-74
2022/09/14 10:08:33;;;;;;;4.18;2.80;;;;;;;;;;5045651;28;20045;-74
2022/09/14 10:11:02;;;;;;;2.60;2.40;;;;;;;;;;5029674;28;20936;-74
2022/09/14 10:13:29;;;;;;;3.70;2.53;;;;;;;;;;5023872;28;20451;-74
2022/09/14 10:16:06;;;;;;;6.78;2.70;;;;;;;;;;5040724;28;20415;-73
2022/09/14 10:18:34;;;;;;;4.05;2.70;;;;;;;;;;5042695;28;20037;-74
2022/09/14 10:21:01;;;;;;;3.83;2.72;;;;;;;;;;5041101;28;20275;-74
2022/09/14 10:23:32;;;;;;;6.25;2.70;;;;;;;;;;5033145;28;20527;-74
2022/09/14 10:26:11;;;;;;;3.78;2.60;;;;;;;;;;5041808;28;20055;-74
2022/09/14 10:28:43;;;;;;;6.95;6.32;;;;;;;;;;5042897;28;20106;-74
2022/09/14 10:31:11;;;;;;;5.35;4.20;;;;;;;;;;5044450;28;20049;-74
2022/09/14 10:33:39;;;;;;;5.68;3.60;;;;;;;;;;5039852;28;20049;-73
2022/09/14 10:36:25;;;;;;;4.88;2.97;;;;;;;;;;5047588;28;20045;-74
2022/09/14 10:38:59;;;;;;;3.20;2.90;;;;;;;;;;5036165;28;20074;-74
2022/09/14 10:41:38;;;;;;;3.53;2.80;;;;;;;;;;5020746;28;20119;-74
2022/09/14 10:44:22;;;;;;;4.30;2.80;;;;;;;;;;5044361;28;20065;-73
2022/09/14 10:50:02;;;;;;;4.38;2.38;;;;;;;;;;4958491;28;20109;-73
2022/09/14 10:52:39;;;;;;;3.00;2.67;;;;;;;;;;4975910;28;20347;-73
2022/09/14 10:55:18;;;;;;;4.38;2.60;;;;;;;;;;4962001;28;20069;-74
2022/09/14 10:57:50;;;;;;;5.90;2.70;;;;;;;;;;4965868;28;20089;-73
2022/09/14 11:00:21;;;;;;;4.20;2.70;;;;;;;;;;4960445;28;20039;-73
2022/09/14 11:02:48;;;;;;;3.40;2.47;;;;;;;;;;5001768;22;20327;-73
2022/09/14 11:05:25;;;;;;;3.90;2.67;;;;;;;;;;4984137;28;20129;-72
2022/09/14 11:07:52;;;;;;;3.33;2.72;;;;;;;;;;4980747;28;20042;-73
2022/09/14 11:10:29;;;;;;;6.68;2.70;;;;;;;;;;4978283;28;20494;-73
2022/09/14 11:12:59;;;;;;;4.18;2.70;;;;;;;;;;4988203;28;20045;-72
2022/09/14 11:15:37;;;;;;;3.47;2.45;;;;;;;;;;5006057;28;20153;-72
2022/09/14 11:18:23;;;;;;;5.97;2.60;;;;;;;;;;5006130;28;20334;-73
2022/09/14 11:20:59;;;;;;;5.07;2.53;;;;;;;;;;4989145;28;20054;-73
2022/09/14 11:23:33;;;;;;;3.15;2.33;;;;;;;;;;5005906;28;20042;-73
2022/09/14 11:26:30;;;;;;;4.85;2.67;;;;;;;;;;4986825;28;20053;-73
2022/09/14 11:29:11;;;;;;;5.45;2.53;;;;;;;;;;5004161;28;20046;-73
2022/09/14 11:31:44;;;;;;;2.50;2.30;;;;;;;;;;5003862;28;20053;-73
2022/09/14 11:34:34;;;;;;;4.72;2.28;;;;;;;;;;5005306;28;20488;-73
2022/09/14 11:37:07;;;;;;;8.05;2.40;;;;;;;;;;5005726;28;20044;-74
2022/09/14 11:39:53;;;;;;;5.97;3.30;;;;;;;;;;5005055;28;20128;-74
2022/09/14 11:42:27;;;;;;;3.83;2.28;;;;;;;;;;4980881;28;20061;-72
2022/09/14 11:45:04;;;;;;;7.10;6.20;;;;;;;;;;4988004;28;20121;-73
2022/09/14 11:47:37;;;;;;;3.03;2.53;;;;;;;;;;4986930;28;20137;-71
2022/09/14 11:50:10;;;;;;;4.00;3.70;;;;;;;;;;4987884;28;20158;-72
2022/09/14 11:52:37;;;;;;;4.13;3.10;;;;;;;;;;4988203;28;20042;-73
2022/09/14 11:55:09;;;;;;;3.67;2.10;;;;;;;;;;4989075;28;20042;-72
2022/09/14 11:57:36;;;;;;;;;;;;;;;;;;4982546;28;20484;-74
2022/09/14 12:00:22;;;;;;;2.90;2.20;;;;;;;;;;4979872;28;19977;-74
2022/09/14 12:03:02;;;;;;;5.10;2.00;;;;;;;;;;4985554;28;20541;-72
2022/09/14 12:05:31;;;;;;;4.43;2.13;;;;;;;;;;4984938;28;20056;-73
2022/09/14 12:08:02;;;;;;;6.07;2.00;;;;;;;;;;4983936;28;20050;-72
2022/09/14 12:10:30;;;;;;;3.75;2.20;;;;;;;;;;4969813;28;20058;-73
2022/09/14 12:13:17;;;;;;;2.78;2.13;;;;;;;;;;4988619;28;20046;-71
2022/09/14 12:15:44;;;;;;;3.38;1.90;;;;;;;;;;4978970;28;20042;-72
2022/09/14 12:18:12;;;;;;;2.38;2.08;;;;;;;;;;4984573;28;20050;-72
2022/09/14 12:20:41;;;;;;;4.57;2.20;;;;;;;;;;4983996;28;20050;-73
2022/09/14 12:23:25;;;;;;;3.70;2.20;;;;;;;;;;4987197;28;20050;-72
2022/09/14 12:25:54;;;;;;;2.88;2.50;;;;;;;;;;4984641;28;20042;-71
2022/09/14 12:28:36;;;;;;;3.17;2.20;;;;;;;;;;4987367;28;20053;-72
2022/09/14 12:31:03;;;;;;;3.08;2.20;;;;;;;;;;4982072;28;20058;-71
2022/09/14 12:33:31;;;;;;;3.08;2.47;;;;;;;;;;4984282;28;20069;-70
2022/09/14 12:35:58;;;;;;;3.72;2.50;;;;;;;;;;4986206;28;20520;-71
2022/09/14 12:38:29;;;;;;;3.03;2.70;;;;;;;;;;4985446;28;20116;-72
2022/09/14 12:41:14;;;;;;;4.38;2.80;;;;;;;;;;4987269;28;20054;-71
2022/09/14 12:43:42;;;;;;;6.45;2.50;;;;;;;;;;5001400;28;20084;-72
2022/09/14 12:46:12;;;;;;;3.90;2.55;;;;;;;;;;5004509;28;20143;-72
2022/09/14 12:48:46;;;;;;;4.77;2.73;;;;;;;;;;4963866;28;20054;-72
2022/09/14 12:51:31;;;;;;;3.33;2.20;;;;;;;;;;4984770;28;21132;-70
2022/09/14 12:54:07;;;;;;;2.92;2.60;;;;;;;;;;4984774;28;20052;-71
2022/09/14 12:56:55;;;;;;;2.88;2.50;;;;;;;;;;4984768;28;20068;-73
2022/09/14 12:59:51;;;;;;;4.50;2.38;;;;;;;;;;4987360;28;20043;-72
2022/09/14 13:02:25;;;;;;;3.80;2.28;;;;;;;;;;4970636;28;20120;-72
2022/09/14 13:04:54;;;;;;;4.00;2.65;;;;;;;;;;4982775;28;20911;-72
2022/09/14 13:07:22;;;;;;;7.05;6.35;;;;;;;;;;4985837;28;20046;-71
2022/09/14 13:09:52;;;;;;;6.05;3.75;;;;;;;;;;4985945;28;20057;-72
2022/09/14 13:12:25;;;;;;;3.75;2.35;;;;;;;;;;4987461;28;20410;-73
2022/09/14 13:14:54;;;;;;;2.25;2.15;;;;;;;;;;4985283;28;20046;-72
2022/09/14 13:17:23;;;;;;;4.70;2.13;;;;;;;;;;4982857;28;20186;-72
2022/09/14 13:19:55;;;;;;;3.00;2.70;;;;;;;;;;4986662;28;20046;-73
2022/09/14 13:22:24;;;;;;;4.07;2.30;;;;;;;;;;4997101;28;20042;-72
2022/09/14 13:24:51;;;;;;;3.72;2.55;;;;;;;;;;5005733;28;20386;-72
2022/09/14 13:27:22;;;;;;;3.15;2.45;;;;;;;;;;4997591;28;20109;-71
2022/09/14 13:30:05;;;;;;;4.32;2.38;;;;;;;;;;4987284;28;20038;-72
2022/09/14 13:32:34;;;;;;;4.05;2.38;;;;;;;;;;4980344;28;20042;-70
2022/09/14 13:35:04;;;;;;;3.88;3.60;;;;;;;;;;4984316;28;20104;-72
2022/09/14 13:37:31;;;;;;;6.63;3.88;;;;;;;;;;4986569;28;20038;-71
2022/09/14 13:39:59;;;;;;;4.60;2.58;;;;;;;;;;4963516;28;20311;-71
2022/09/14 13:42:26;;;;;;;2.53;2.25;;;;;;;;;;4987722;28;20046;-73
2022/09/14 13:44:54;;;;;;;3.60;2.40;;;;;;;;;;4977310;28;20098;-73
2022/09/14 13:47:23;;;;;;;4.95;2.35;;;;;;;;;;4982070;28;20043;-71
2022/09/14 13:49:51;;;;;;;2.30;2.10;;;;;;;;;;4982249;28;20047;-72
2022/09/14 13:52:25;;;;;;;3.90;2.22;;;;;;;;;;4978938;28;20046;-72
2022/09/14 13:55:21;;;;;;;2.58;1.92;;;;;;;;;;4990803;28;20048;-71
2022/09/14 13:58:05;;;;;;;2.17;1.92;;;;;;;;;;4985398;28;20054;-70
2022/09/14 14:00:33;;;;;;;2.53;2.22;;;;;;;;;;4980989;28;20046;-71
2022/09/14 14:03:02;;;;;;;4.40;2.10;;;;;;;;;;4983944;28;20412;-71
2022/09/14 14:05:33;;;;;;;4.70;1.90;;;;;;;;;;4985361;28;20503;-72
2022/09/14 14:08:01;;;;;;;;;;;;;;;;;;4978614;28;20780;-71
2022/09/14 14:10:33;;;;;;;2.20;2.00;;;;;;;;;;4986174;28;19979;-72
2022/09/14 14:13:00;;;;;;;2.65;1.92;;;;;;;;;;4980962;28;20126;-72
2022/09/14 14:15:37;;;;;;;6.40;2.22;;;;;;;;;;4983298;28;20295;-71
2022/09/14 14:18:23;;;;;;;6.22;2.50;;;;;;;;;;4986357;28;20054;-72
2022/09/14 14:20:50;;;;;;;4.25;2.10;;;;;;;;;;4984696;28;20050;-72
2022/09/14 14:23:22;;;;;;;3.10;2.42;;;;;;;;;;4997982;28;20443;-72
2022/09/14 14:25:54;;;;;;;5.18;2.50;;;;;;;;;;4984619;28;20101;-72
2022/09/14 14:28:26;;;;;;;3.80;2.30;;;;;;;;;;4984496;28;20035;-71
2022/09/14 14:30:54;;;;;;;3.88;2.20;;;;;;;;;;4987634;28;20042;-71
2022/09/14 14:33:21;;;;;;;6.90;2.50;;;;;;;;;;4977106;28;20050;-73
2022/09/14 14:35:51;;;;;;;2.65;2.20;;;;;;;;;;4978103;28;20534;-72
2022/09/14 14:38:19;;;;;;;4.10;3.05;;;;;;;;;;4965357;28;20042;-71
2022/09/14 14:40:46;;;;;;;3.85;3.00;;;;;;;;;;4978244;28;20125;-72
2022/09/14 14:43:17;;;;;;;3.78;2.58;;;;;;;;;;4984531;28;20047;-72
2022/09/14 14:45:45;;;;;;;4.15;2.60;;;;;;;;;;4984786;28;20050;-72
2022/09/14 14:48:12;;;;;;;3.20;2.22;;;;;;;;;;4984434;28;20323;-71
2022/09/14 14:50:39;;;;;;;3.25;2.10;;;;;;;;;;4985945;28;20048;-70
2022/09/14 14:53:07;;;;;;;6.38;2.35;;;;;;;;;;4983719;28;20054;-70
2022/09/14 14:55:36;;;;;;;4.47;2.03;;;;;;;;;;4982669;28;20046;-70
2022/09/14 14:58:06;;;;;;;3.92;2.00;;;;;;;;;;4973080;28;20046;-71
2022/09/14 15:00:35;;;;;;;6.10;2.08;;;;;;;;;;4961193;28;20451;-71
2022/09/14 15:03:03;;;;;;;2.85;1.90;;;;;;;;;;4981574;28;20046;-69
2022/09/14 15:05:31;;;;;;;4.60;2.20;;;;;;;;;;4984134;28;20041;-68
2022/09/14 15:07:58;;;;;;;2.35;2.00;;;;;;;;;;4984010;28;20109;-72
2022/09/14 15:10:26;;;;;;;3.40;1.95;;;;;;;;;;4983738;28;20046;-69
2022/09/14 15:12:54;;;;;;;2.35;2.00;;;;;;;;;;4978791;28;20047;-71
2022/09/14 15:15:22;;;;;;;5.25;2.60;;;;;;;;;;4996446;28;20379;-71
2022/09/14 15:17:50;;;;;;;4.97;3.47;;;;;;;;;;4976961;28;20528;-70
2022/09/14 15:20:18;;;;;;;6.53;5.22;;;;;;;;;;4987059;28;20446;-72
2022/09/14 15:22:46;;;;;;;3.67;2.70;;;;;;;;;;4983687;28;20035;-71
2022/09/14 15:25:14;;;;;;;3.10;2.80;;;;;;;;;;4980664;28;20042;-72
2022/09/14 15:27:41;;;;;;;8.93;2.53;;;;;;;;;;4990302;28;20053;-72
2022/09/14 15:30:10;;;;;;;3.85;3.47;;;;;;;;;;4982529;28;20047;-71
2022/09/14 15:32:37;;;;;;;7.13;4.75;;;;;;;;;;4982329;28;20069;-72
2022/09/14 15:35:05;;;;;;;4.82;3.70;;;;;;;;;;4986113;28;20124;-71
2022/09/14 15:37:33;;;;;;;5.47;2.67;;;;;;;;;;4980180;28;20611;-70
2022/09/14 15:40:00;;;;;;;6.50;3.20;;;;;;;;;;4974870;28;20138;-71
2022/09/14 15:42:28;;;;;;;5.00;3.83;;;;;;;;;;4980092;28;20046;-72
2022/09/14 15:44:55;;;;;;;7.53;4.70;;;;;;;;;;4987473;28;20408;-71
2022/09/14 15:47:23;;;;;;;4.55;3.75;;;;;;;;;;4986305;28;20049;-73
2022/09/14 15:49:53;;;;;;;5.10;2.40;;;;;;;;;;4988453;28;20546;-73
2022/09/14 15:52:21;;;;;;;8.98;5.72;;;;;;;;;;4988490;28;20129;-72
2022/09/14 15:54:48;;;;;;;7.97;5.03;;;;;;;;;;4986812;28;20410;-72
2022/09/14 15:57:15;;;;;;;7.07;4.25;;;;;;;;;;4988873;28;20046;-71
2022/09/14 15:59:42;;;;;;;4.47;2.90;;;;;;;;;;4988508;28;20046;-72
2022/09/14 16:02:13;;;;;;;7.00;3.20;;;;;;;;;;4987845;28;20129;-72
2022/09/14 16:04:41;;;;;;;4.60;1.95;;;;;;;;;;4984072;28;20038;-72
2022/09/14 16:07:08;;;;;;;3.50;2.00;;;;;;;;;;4984782;28;20042;-71
2022/09/14 16:09:37;;;;;;;4.80;2.10;;;;;;;;;;4988304;28;20560;-75
2022/09/14 16:12:05;;;;;;;8.18;2.10;;;;;;;;;;4987702;28;20054;-71
2022/09/14 16:14:32;;;;;;;3.22;2.10;;;;;;;;;;4986965;28;20094;-73
2022/09/14 16:17:00;;;;;;;7.13;2.47;;;;;;;;;;4988062;28;20046;-73
2022/09/14 16:19:27;;;;;;;3.03;2.40;;;;;;;;;;4977284;28;20154;-72
2022/09/14 16:21:54;;;;;;;3.25;2.40;;;;;;;;;;4988543;28;20081;-72
2022/09/14 16:24:22;;;;;;;6.97;2.60;;;;;;;;;;4986041;28;20046;-72
2022/09/14 16:26:50;;;;;;;5.88;2.97;;;;;;;;;;4987072;28;20418;-73
2022/09/14 16:29:18;;;;;;;3.97;2.88;;;;;;;;;;4986824;28;20054;-73
2022/09/14 16:31:46;;;;;;;5.35;2.67;;;;;;;;;;4987222;28;20304;-72
2022/09/14 16:34:15;;;;;;;3.38;2.90;;;;;;;;;;4985830;28;20106;-75
2022/09/14 16:36:43;;;;;;;4.88;3.05;;;;;;;;;;4986051;28;20046;-73
2022/09/14 16:39:12;;;;;;;4.82;2.50;;;;;;;;;;4987899;28;20050;-74
2022/09/14 16:41:41;;;;;;;3.80;2.65;;;;;;;;;;4988173;28;20096;-72
2022/09/14 16:44:12;;;;;;;8.38;3.10;;;;;;;;;;4987461;28;20110;-72
2022/09/14 16:46:40;;;;;;;4.45;2.80;;;;;;;;;;4984269;28;20651;-73
2022/09/14 16:49:08;;;;;;;10.65;3.08;;;;;;;;;;4983277;28;20465;-72
2022/09/14 16:51:35;;;;;;;99.88;6.40;;;;;;;;;;4981230;28;20222;-71
2022/09/14 16:54:03;;;;;;;56.70;5.35;;;;;;;;;;4974041;28;20131;-72
2022/09/14 16:56:32;;;;;;;35.47;5.43;;;;;;;;;;4980320;28;20422;-73
